EIN220 EGAC-EGPH
Flight info
| Callsign | EIN220 |
|---|---|
| Flight time | 0h 31m |
| Altitude | 19000 |
| Route | DCT MAGEE DCT BLACA P600 TUNSO TUNSO1E |
| Aircraft | AT76/M-SDE3L/L |
Departure
| Time | 2026-05-09 13:11 |
|---|---|
| Airport | George Best Belfast City Airport (EGAC) |
Arrival
| Time | 2026-05-09 13:43 |
|---|---|
| Airport | Edinburgh Airport (EGPH) |
| Time | Latitude | Longitude | Altitude | Speed | Heading |
|---|---|---|---|---|---|
| 2026-05-09 12:53 | 54.61502 | -5.87147 | 18 ft | 0 kts | 156° |
| 2026-05-09 13:07 | 54.61511 | -5.87154 | 20 ft | 4 kts | 156° |
| 2026-05-09 13:07 | 54.61532 | -5.87169 | 19 ft | 4 kts | 160° |
| 2026-05-09 13:07 | 54.61557 | -5.87178 | 19 ft | 4 kts | 188° |
| 2026-05-09 13:07 | 54.61579 | -5.87165 | 18 ft | 1 kts | 216° |
| 2026-05-09 13:08 | 54.61582 | -5.87160 | 18 ft | 0 kts | 216° |
| 2026-05-09 13:09 | 54.61552 | -5.87197 | 18 ft | 15 kts | 215° |
| 2026-05-09 13:10 | 54.61441 | -5.87332 | 18 ft | 24 kts | 216° |
| 2026-05-09 13:10 | 54.61307 | -5.87537 | 15 ft | 28 kts | 213° |
| 2026-05-09 13:10 | 54.61283 | -5.87727 | 12 ft | 17 kts | 309° |
| 2026-05-09 13:10 | 54.61372 | -5.87764 | 11 ft | 12 kts | 26° |
| 2026-05-09 13:11 | 54.61550 | -5.87554 | 11 ft | 62 kts | 34° |
| 2026-05-09 13:11 | 54.62061 | -5.86955 | 96 ft | 108 kts | 33° |
| 2026-05-09 13:11 | 54.62719 | -5.86234 | 664 ft | 117 kts | 28° |
| 2026-05-09 13:11 | 54.63452 | -5.85416 | 1201 ft | 132 kts | 32° |
| 2026-05-09 13:12 | 54.64247 | -5.84434 | 1745 ft | 148 kts | 32° |
| 2026-05-09 13:12 | 54.65069 | -5.83223 | 2257 ft | 162 kts | 38° |
| 2026-05-09 13:12 | 54.65915 | -5.81846 | 2771 ft | 171 kts | 40° |
| 2026-05-09 13:12 | 54.66798 | -5.80405 | 3295 ft | 178 kts | 40° |
| 2026-05-09 13:13 | 54.67719 | -5.78938 | 3832 ft | 182 kts | 41° |
| 2026-05-09 13:13 | 54.68672 | -5.77444 | 4353 ft | 187 kts | 41° |
| 2026-05-09 13:13 | 54.69645 | -5.75926 | 4882 ft | 190 kts | 42° |
| 2026-05-09 13:13 | 54.70704 | -5.74544 | 5400 ft | 192 kts | 34° |
| 2026-05-09 13:14 | 54.71707 | -5.73050 | 5913 ft | 192 kts | 49° |
| 2026-05-09 13:14 | 54.72553 | -5.71235 | 6441 ft | 195 kts | 50° |
| 2026-05-09 13:16 | 54.77936 | -5.56943 | 10247 ft | 203 kts | 57° |
| 2026-05-09 13:16 | 54.78636 | -5.54855 | 10860 ft | 198 kts | 56° |
| 2026-05-09 13:16 | 54.79328 | -5.52833 | 11492 ft | 192 kts | 56° |
| 2026-05-09 13:16 | 54.80007 | -5.50876 | 12125 ft | 186 kts | 56° |
| 2026-05-09 13:17 | 54.80659 | -5.49014 | 12744 ft | 181 kts | 56° |
| 2026-05-09 13:17 | 54.81305 | -5.47159 | 13313 ft | 179 kts | 56° |
| 2026-05-09 13:17 | 54.81942 | -5.45304 | 13830 ft | 179 kts | 56° |
| 2026-05-09 13:17 | 54.82576 | -5.43437 | 14310 ft | 179 kts | 56° |
| 2026-05-09 13:18 | 54.83207 | -5.41566 | 14753 ft | 180 kts | 56° |
| 2026-05-09 13:18 | 54.83841 | -5.39697 | 15189 ft | 180 kts | 56° |
| 2026-05-09 13:18 | 54.84478 | -5.37822 | 15616 ft | 180 kts | 56° |
| 2026-05-09 13:18 | 54.85113 | -5.35937 | 16030 ft | 181 kts | 56° |
| 2026-05-09 13:19 | 54.85753 | -5.34047 | 16440 ft | 182 kts | 56° |
| 2026-05-09 13:19 | 54.86397 | -5.32143 | 16835 ft | 183 kts | 56° |
| 2026-05-09 13:19 | 54.87043 | -5.30229 | 17216 ft | 185 kts | 56° |
| 2026-05-09 13:19 | 54.87695 | -5.28291 | 17580 ft | 188 kts | 56° |
| 2026-05-09 13:20 | 54.88368 | -5.26285 | 17856 ft | 196 kts | 57° |
| 2026-05-09 13:20 | 54.89059 | -5.24186 | 18140 ft | 205 kts | 57° |
| 2026-05-09 13:20 | 54.89769 | -5.21983 | 18421 ft | 213 kts | 58° |
| 2026-05-09 13:20 | 54.90505 | -5.19703 | 18681 ft | 220 kts | 57° |
| 2026-05-09 13:21 | 54.91273 | -5.17382 | 18929 ft | 227 kts | 57° |
| 2026-05-09 13:21 | 54.92081 | -5.14959 | 19126 ft | 237 kts | 57° |
| 2026-05-09 13:21 | 54.92932 | -5.12404 | 19200 ft | 251 kts | 57° |
| 2026-05-09 13:21 | 54.93833 | -5.09697 | 19227 ft | 265 kts | 58° |
| 2026-05-09 13:22 | 54.94776 | -5.06857 | 19251 ft | 277 kts | 58° |
| 2026-05-09 13:22 | 54.95759 | -5.03898 | 19254 ft | 287 kts | 58° |
| 2026-05-09 13:22 | 54.96772 | -5.00845 | 19258 ft | 295 kts | 58° |
| 2026-05-09 13:23 | 55.01016 | -4.88020 | 19253 ft | 313 kts | 58° |
| 2026-05-09 13:23 | 55.02108 | -4.84710 | 19249 ft | 316 kts | 58° |
| 2026-05-09 13:24 | 55.03208 | -4.81381 | 19254 ft | 318 kts | 58° |
| 2026-05-09 13:24 | 55.04310 | -4.78028 | 19249 ft | 319 kts | 59° |
| 2026-05-09 13:24 | 55.05415 | -4.74662 | 19251 ft | 320 kts | 58° |
| 2026-05-09 13:24 | 55.06519 | -4.71300 | 19258 ft | 321 kts | 58° |
| 2026-05-09 13:25 | 55.07625 | -4.67957 | 19250 ft | 320 kts | 56° |
| 2026-05-09 13:25 | 55.09128 | -4.65105 | 19257 ft | 313 kts | 35° |
| 2026-05-09 13:25 | 55.12626 | -4.60697 | 19258 ft | 312 kts | 29° |
| 2026-05-09 13:26 | 55.14443 | -4.58607 | 19253 ft | 313 kts | 29° |
| 2026-05-09 13:26 | 55.16262 | -4.56521 | 19264 ft | 313 kts | 29° |
| 2026-05-09 13:26 | 55.18075 | -4.54385 | 19261 ft | 314 kts | 30° |
| 2026-05-09 13:26 | 55.19878 | -4.52217 | 19265 ft | 315 kts | 30° |
| 2026-05-09 13:27 | 55.21690 | -4.50042 | 19254 ft | 315 kts | 30° |
| 2026-05-09 13:27 | 55.23502 | -4.47862 | 19261 ft | 315 kts | 30° |
| 2026-05-09 13:27 | 55.25309 | -4.45696 | 19264 ft | 315 kts | 30° |
| 2026-05-09 13:27 | 55.27118 | -4.43521 | 19259 ft | 315 kts | 30° |
| 2026-05-09 13:28 | 55.28930 | -4.41336 | 19261 ft | 315 kts | 30° |
| 2026-05-09 13:28 | 55.30717 | -4.39178 | 19261 ft | 315 kts | 30° |
| 2026-05-09 13:28 | 55.32547 | -4.36962 | 19243 ft | 317 kts | 31° |
| 2026-05-09 13:28 | 55.34389 | -4.34735 | 18948 ft | 327 kts | 31° |
| 2026-05-09 13:29 | 55.36269 | -4.32451 | 18598 ft | 336 kts | 31° |
| 2026-05-09 13:29 | 55.38210 | -4.30091 | 18183 ft | 339 kts | 31° |
| 2026-05-09 13:29 | 55.40145 | -4.27735 | 17774 ft | 338 kts | 31° |
| 2026-05-09 13:29 | 55.42082 | -4.25382 | 17367 ft | 337 kts | 31° |
| 2026-05-09 13:30 | 55.44005 | -4.23041 | 17039 ft | 334 kts | 31° |
| 2026-05-09 13:30 | 55.45898 | -4.20727 | 16745 ft | 328 kts | 31° |
| 2026-05-09 13:30 | 55.47763 | -4.18453 | 16355 ft | 324 kts | 31° |
| 2026-05-09 13:30 | 55.49605 | -4.16196 | 15968 ft | 321 kts | 31° |
| 2026-05-09 13:31 | 55.50821 | -4.14710 | 15703 ft | 319 kts | 31° |
| 2026-05-09 13:31 | 55.53247 | -4.11738 | 15212 ft | 316 kts | 32° |
| 2026-05-09 13:31 | 55.55052 | -4.09525 | 14860 ft | 315 kts | 32° |
| 2026-05-09 13:31 | 55.56236 | -4.08069 | 14587 ft | 313 kts | 32° |
| 2026-05-09 13:32 | 55.58024 | -4.05867 | 14091 ft | 312 kts | 32° |
| 2026-05-09 13:32 | 55.61547 | -4.01527 | 12901 ft | 296 kts | 32° |
| 2026-05-09 13:32 | 55.63183 | -3.99507 | 12275 ft | 285 kts | 32° |
| 2026-05-09 13:33 | 55.64821 | -3.97491 | 11645 ft | 288 kts | 32° |
| 2026-05-09 13:33 | 55.66466 | -3.95456 | 11039 ft | 289 kts | 32° |
| 2026-05-09 13:33 | 55.68115 | -3.93422 | 10441 ft | 289 kts | 32° |
| 2026-05-09 13:33 | 55.69754 | -3.91377 | 9819 ft | 287 kts | 33° |
| 2026-05-09 13:34 | 55.71384 | -3.89337 | 9174 ft | 284 kts | 33° |
| 2026-05-09 13:34 | 55.72988 | -3.87321 | 8561 ft | 278 kts | 33° |
| 2026-05-09 13:34 | 55.74489 | -3.85427 | 7966 ft | 264 kts | 33° |
| 2026-05-09 13:34 | 55.75972 | -3.83553 | 7375 ft | 264 kts | 33° |
| 2026-05-09 13:35 | 55.77469 | -3.81675 | 6800 ft | 262 kts | 33° |
| 2026-05-09 13:35 | 55.78914 | -3.79869 | 6270 ft | 240 kts | 33° |
| 2026-05-09 13:35 | 55.80240 | -3.78214 | 5615 ft | 226 kts | 32° |
| 2026-05-09 13:35 | 55.81500 | -3.76651 | 4974 ft | 216 kts | 33° |
| 2026-05-09 13:36 | 55.82558 | -3.74917 | 4423 ft | 201 kts | 58° |
| 2026-05-09 13:36 | 55.83149 | -3.72800 | 4173 ft | 187 kts | 62° |
| 2026-05-09 13:36 | 55.83738 | -3.70706 | 4070 ft | 190 kts | 62° |
| 2026-05-09 13:36 | 55.84328 | -3.68630 | 4040 ft | 185 kts | 60° |
| 2026-05-09 13:37 | 55.85168 | -3.66068 | 3787 ft | 181 kts | 55° |
| 2026-05-09 13:37 | 55.85637 | -3.64829 | 3631 ft | 172 kts | 54° |
| 2026-05-09 13:37 | 55.86249 | -3.63111 | 3407 ft | 158 kts | 58° |
| 2026-05-09 13:37 | 55.86793 | -3.61454 | 3192 ft | 154 kts | 59° |
| 2026-05-09 13:38 | 55.87323 | -3.59858 | 2983 ft | 142 kts | 58° |
| 2026-05-09 13:38 | 55.87810 | -3.58452 | 2820 ft | 130 kts | 58° |
| 2026-05-09 13:38 | 55.88263 | -3.57137 | 2613 ft | 117 kts | 58° |
| 2026-05-09 13:38 | 55.88672 | -3.55936 | 2458 ft | 112 kts | 59° |
| 2026-05-09 13:39 | 55.89075 | -3.54744 | 2311 ft | 114 kts | 59° |
| 2026-05-09 13:39 | 55.89482 | -3.53521 | 2148 ft | 114 kts | 60° |
| 2026-05-09 13:39 | 55.89886 | -3.52308 | 1989 ft | 114 kts | 59° |
| 2026-05-09 13:39 | 55.90301 | -3.51101 | 1826 ft | 114 kts | 59° |
| 2026-05-09 13:40 | 55.90711 | -3.49905 | 1665 ft | 113 kts | 59° |
| 2026-05-09 13:40 | 55.91126 | -3.48715 | 1515 ft | 113 kts | 60° |
| 2026-05-09 13:40 | 55.91533 | -3.47511 | 1366 ft | 115 kts | 61° |
| 2026-05-09 13:40 | 55.91940 | -3.46283 | 1197 ft | 115 kts | 61° |
| 2026-05-09 13:41 | 55.92342 | -3.45045 | 1019 ft | 115 kts | 59° |
| 2026-05-09 13:41 | 55.92760 | -3.43859 | 834 ft | 111 kts | 60° |
| 2026-05-09 13:41 | 55.93161 | -3.42711 | 702 ft | 109 kts | 61° |
| 2026-05-09 13:41 | 55.93545 | -3.41545 | 537 ft | 108 kts | 61° |
| 2026-05-09 13:42 | 55.93935 | -3.40414 | 374 ft | 111 kts | 60° |
| 2026-05-09 13:42 | 55.94338 | -3.39255 | 237 ft | 109 kts | 60° |
| 2026-05-09 13:42 | 55.94720 | -3.38107 | 127 ft | 105 kts | 61° |
| 2026-05-09 13:42 | 55.95065 | -3.37047 | 109 ft | 73 kts | 59° |
| 2026-05-09 13:43 | 55.95168 | -3.36741 | 110 ft | 15 kts | 58° |
| 2026-05-09 13:43 | 55.95248 | -3.36501 | 107 ft | 28 kts | 71° |
| 2026-05-09 13:43 | 55.95203 | -3.36363 | 111 ft | 1 kts | 148° |
| 2026-05-09 13:43 | 55.95139 | -3.36313 | 112 ft | 12 kts | 184° |
| 2026-05-09 13:44 | 55.95051 | -3.36391 | 113 ft | 16 kts | 172° |
| 2026-05-09 13:44 | 55.94968 | -3.36527 | 113 ft | 2 kts | 223° |
| 2026-05-09 13:44 | 55.94913 | -3.36504 | 110 ft | 9 kts | 149° |
| 2026-05-09 13:44 | 55.94909 | -3.36500 | 110 ft | 0 kts | 149° |
| 2026-05-09 13:45 | 55.94905 | -3.36495 | 110 ft | 2 kts | 149° |
| 2026-05-09 13:45 | 55.94904 | -3.36495 | 110 ft | 0 kts | 149° |